createdAt,value
2023-01-20T00:01:37.225Z,94269.75
2023-01-20T00:04:04.602Z,94287.66
2023-01-20T00:06:31.751Z,94300.40
2023-01-20T00:09:01.117Z,94308.01
2023-01-20T00:11:28.672Z,94288.39
2023-01-20T00:13:57.708Z,94276.21
2023-01-20T00:16:25.404Z,94265.03
2023-01-20T00:18:52.757Z,94220.15
2023-01-20T00:21:20.264Z,94137.29
2023-01-20T00:23:48.747Z,94042.41
2023-01-20T00:26:18.044Z,94068.29
2023-01-20T00:28:45.999Z,94080.93
2023-01-20T00:31:29.085Z,94089.78
2023-01-20T00:33:58.654Z,94085.83
2023-01-20T00:36:27.486Z,94072.80
2023-01-20T00:38:55.306Z,94067.88
2023-01-20T00:41:22.334Z,94076.68
2023-01-20T00:43:49.588Z,94070.02
2023-01-20T00:46:17.093Z,94059.92
2023-01-20T00:48:43.929Z,94055.21
2023-01-20T00:51:11.554Z,94063.00
2023-01-20T00:53:38.330Z,94068.61
2023-01-20T00:56:05.920Z,94068.90
2023-01-20T00:58:32.736Z,94074.41
2023-01-20T01:00:59.769Z,94074.26
2023-01-20T01:03:30.220Z,94078.02
2023-01-20T01:06:26.326Z,94072.63
2023-01-20T01:08:53.184Z,94078.27
2023-01-20T01:11:19.980Z,94076.51
2023-01-20T01:13:46.789Z,94072.14
2023-01-20T01:16:15.768Z,94067.88
2023-01-20T01:18:42.968Z,94059.79
2023-01-20T01:21:11.890Z,94066.78
2023-01-20T01:23:38.849Z,94064.90
2023-01-20T01:26:05.976Z,94073.42
2023-01-20T01:28:32.872Z,94069.47
2023-01-20T01:31:03.775Z,94058.91
2023-01-20T01:33:31.039Z,94053.80
2023-01-20T01:35:59.592Z,94050.60
2023-01-20T01:38:27.195Z,94053.64
2023-01-20T01:40:55.808Z,94051.85
2023-01-20T01:43:24.210Z,94051.86
2023-01-20T01:45:51.303Z,94050.64
2023-01-20T01:48:22.432Z,94054.15
2023-01-20T01:50:56.414Z,94070.63
2023-01-20T01:53:23.771Z,94079.20
2023-01-20T01:55:56.666Z,94067.69
2023-01-20T01:58:28.337Z,94068.58
2023-01-20T02:00:55.212Z,94067.33
2023-01-20T02:03:22.549Z,94075.82
2023-01-20T02:05:52.110Z,94071.65
2023-01-20T02:08:20.197Z,94062.96
2023-01-20T02:10:47.035Z,94065.67
2023-01-20T02:13:13.974Z,94058.08
2023-01-20T02:15:53.085Z,94047.54
2023-01-20T02:18:33.223Z,94039.73
2023-01-20T02:21:15.978Z,94041.48
2023-01-20T02:23:58.294Z,94037.58
2023-01-20T02:26:53.003Z,94034.73
2023-01-20T02:29:22.853Z,94044.22
2023-01-20T02:32:20.092Z,94040.02
2023-01-20T02:35:01.954Z,94027.77
2023-01-20T02:37:33.974Z,94025.11
2023-01-20T02:40:25.393Z,94028.27
2023-01-20T02:43:06.109Z,94021.89
2023-01-20T02:46:16.117Z,94012.86
2023-01-20T02:48:55.848Z,94003.19
2023-01-20T02:51:33.176Z,94005.55
2023-01-20T02:54:05.377Z,94008.30
2023-01-20T02:56:34.945Z,94007.01
2023-01-20T02:59:10.457Z,93995.90
2023-01-20T03:01:42.842Z,93982.12
2023-01-20T03:04:12.525Z,93978.37
2023-01-20T03:06:44.267Z,93981.79
2023-01-20T03:09:18.545Z,93982.33
2023-01-20T03:11:52.229Z,93985.17
2023-01-20T03:14:19.498Z,93990.98
2023-01-20T03:16:50.483Z,93991.71
2023-01-20T03:19:20.514Z,93996.06
2023-01-20T03:21:48.468Z,93995.05
2023-01-20T03:24:15.386Z,93994.90
2023-01-20T03:26:42.274Z,94001.20
2023-01-20T03:29:11.713Z,93999.59
2023-01-20T03:31:41.372Z,94000.51
2023-01-20T03:34:13.375Z,94000.17
2023-01-20T03:36:43.780Z,93998.43
2023-01-20T03:39:11.134Z,94005.30
2023-01-20T03:41:43.521Z,94003.75
2023-01-20T03:44:31.380Z,93995.86
2023-01-20T03:47:12.885Z,94002.34
2023-01-20T03:50:17.809Z,94003.98
2023-01-20T03:52:55.687Z,93994.16
2023-01-20T03:55:41.442Z,93977.80
2023-01-20T03:58:13.859Z,93974.62
2023-01-20T04:00:45.031Z,93968.58
2023-01-20T04:03:18.986Z,93959.29
2023-01-20T04:05:48.263Z,93947.63
2023-01-20T04:08:17.688Z,93945.61
2023-01-20T04:10:48.681Z,93947.21
2023-01-20T04:13:16.425Z,93948.02
2023-01-20T04:15:46.478Z,93945.30
2023-01-20T04:18:19.310Z,93947.48
2023-01-20T04:20:49.382Z,93936.30
2023-01-20T04:23:25.134Z,93928.98
2023-01-20T04:25:51.985Z,93924.85
2023-01-20T04:28:18.759Z,93921.46
2023-01-20T04:30:45.789Z,93922.23
2023-01-20T04:33:12.618Z,93918.88
2023-01-20T04:35:39.764Z,93919.04
2023-01-20T04:38:07.109Z,93920.95
2023-01-20T04:40:34.177Z,93919.74
2023-01-20T04:43:01.559Z,93919.37
2023-01-20T04:45:30.088Z,93922.34
2023-01-20T04:47:57.193Z,93929.35
2023-01-20T04:50:24.281Z,93931.70
2023-01-20T04:52:55.352Z,93929.35
2023-01-20T04:55:22.289Z,93935.02
2023-01-20T04:57:49.565Z,93937.85
2023-01-20T05:00:20.327Z,93940.52
2023-01-20T05:02:47.494Z,93953.16
2023-01-20T05:05:15.076Z,93961.48
2023-01-20T05:07:42.520Z,93973.36
2023-01-20T05:10:12.354Z,93979.22
2023-01-20T05:12:41.376Z,93985.48
2023-01-20T05:15:20.505Z,93980.86
2023-01-20T05:17:47.681Z,93969.34
2023-01-20T05:20:15.123Z,93964.35
2023-01-20T05:22:41.850Z,93957.38
2023-01-20T05:25:09.271Z,93958.69
2023-01-20T05:27:36.776Z,93967.38
2023-01-20T05:30:05.816Z,93971.74
2023-01-20T05:32:32.785Z,93973.25
2023-01-20T05:34:59.705Z,93982.98
2023-01-20T05:37:26.664Z,93994.81
2023-01-20T05:39:53.686Z,93995.34
2023-01-20T05:42:20.701Z,93994.77
2023-01-20T05:44:47.832Z,93985.69
2023-01-20T05:47:14.784Z,93979.98
2023-01-20T05:49:41.632Z,93977.42
2023-01-20T05:52:08.782Z,93964.59
2023-01-20T05:54:35.665Z,93958.66
2023-01-20T05:57:04.319Z,93964.15
2023-01-20T05:59:31.532Z,93951.45
2023-01-20T06:01:58.957Z,93925.31
2023-01-20T06:04:25.943Z,93957.70
2023-01-20T06:06:53.241Z,93971.73
2023-01-20T06:09:20.246Z,93973.81
2023-01-20T06:11:47.167Z,93969.80
2023-01-20T06:14:14.600Z,93966.90
2023-01-20T06:16:41.398Z,93967.80
2023-01-20T06:19:08.333Z,93967.20
2023-01-20T06:21:35.131Z,93979.14
2023-01-20T06:24:02.747Z,93981.08
2023-01-20T06:26:29.705Z,93966.00
2023-01-20T06:29:00.787Z,93973.50
2023-01-20T06:31:28.723Z,93986.97
2023-01-20T06:33:56.432Z,93972.92
2023-01-20T06:36:24.070Z,93938.19
2023-01-20T06:38:51.157Z,93956.94
2023-01-20T06:41:19.663Z,93971.39
2023-01-20T06:43:46.671Z,93971.23
2023-01-20T06:46:16.274Z,93973.52
2023-01-20T06:48:44.496Z,93966.73
2023-01-20T06:51:14.306Z,93959.80
2023-01-20T06:53:42.214Z,93958.70
2023-01-20T06:56:13.735Z,93959.20
2023-01-20T06:58:41.017Z,93953.11
2023-01-20T07:01:13.702Z,93955.78
2023-01-20T07:03:44.058Z,93957.44
2023-01-20T07:06:22.889Z,93958.20
2023-01-20T07:08:49.705Z,93954.98
2023-01-20T07:11:16.719Z,93947.20
2023-01-20T07:13:43.603Z,93944.94
2023-01-20T07:16:13.116Z,93950.23
2023-01-20T07:18:41.673Z,93954.72
2023-01-20T07:21:11.490Z,93960.17
2023-01-20T07:23:38.405Z,93955.86
2023-01-20T07:26:10.284Z,93949.80
2023-01-20T07:28:37.904Z,93951.54
2023-01-20T07:31:06.428Z,93954.77
2023-01-20T07:33:34.203Z,93957.39
2023-01-20T07:36:02.132Z,93952.34
2023-01-20T07:38:30.770Z,93947.58
2023-01-20T07:40:58.834Z,93941.52
2023-01-20T07:43:26.286Z,93929.89
2023-01-20T07:45:57.428Z,93926.65
2023-01-20T07:48:25.787Z,93924.59
2023-01-20T07:51:05.771Z,93929.81
2023-01-20T07:53:50.942Z,93929.73
2023-01-20T07:56:25.905Z,93934.33
2023-01-20T07:58:54.063Z,93919.19
2023-01-20T08:01:29.482Z,93909.81
2023-01-20T08:03:57.836Z,93913.91
2023-01-20T08:06:26.122Z,93916.80
2023-01-20T08:08:53.557Z,93910.77
2023-01-20T08:11:22.553Z,93898.61
2023-01-20T08:13:49.771Z,93883.21
2023-01-20T08:16:18.134Z,93877.88
2023-01-20T08:18:45.419Z,93875.67
2023-01-20T08:21:24.830Z,93877.42
2023-01-20T08:23:51.876Z,93893.61
2023-01-20T08:26:19.686Z,93903.80
2023-01-20T08:28:47.240Z,93916.25
2023-01-20T08:31:17.226Z,93917.09
2023-01-20T08:33:45.202Z,93910.54
2023-01-20T08:36:27.581Z,93912.17
2023-01-20T08:38:56.716Z,93903.83
2023-01-20T08:41:27.209Z,93886.09
2023-01-20T08:43:54.660Z,93867.95
2023-01-20T08:46:22.337Z,93856.78
2023-01-20T08:48:50.481Z,93856.05
2023-01-20T08:51:21.187Z,93850.45
2023-01-20T08:53:48.723Z,93846.61
2023-01-20T08:56:16.073Z,93840.47
2023-01-20T08:58:45.009Z,93839.99
2023-01-20T09:01:18.122Z,93830.69
2023-01-20T09:04:03.484Z,93833.90
2023-01-20T09:06:37.520Z,93834.70
2023-01-20T09:09:09.204Z,93832.17
2023-01-20T09:11:36.282Z,93833.06
2023-01-20T09:14:03.342Z,93819.33
2023-01-20T09:16:30.660Z,93807.64
2023-01-20T09:18:57.649Z,93819.29
2023-01-20T09:21:24.491Z,93826.56
2023-01-20T09:23:51.321Z,93828.83
2023-01-20T09:26:34.206Z,93822.30
2023-01-20T09:29:10.736Z,93821.24
2023-01-20T09:31:45.544Z,93810.55
2023-01-20T09:34:19.417Z,93821.33
2023-01-20T09:36:50.659Z,93818.95
2023-01-20T09:39:36.757Z,93819.27
2023-01-20T09:42:43.440Z,93814.54
2023-01-20T09:45:25.443Z,93811.05
2023-01-20T09:48:04.023Z,93817.67
2023-01-20T09:51:24.334Z,93828.25
2023-01-20T09:53:58.032Z,93827.23
2023-01-20T09:56:28.149Z,93834.72
2023-01-20T09:59:18.711Z,93822.09
2023-01-20T10:01:50.030Z,93807.99
2023-01-20T10:04:37.035Z,93800.81
2023-01-20T10:07:21.534Z,93799.75
2023-01-20T10:10:11.849Z,93803.42
2023-01-20T10:12:49.173Z,93802.37
2023-01-20T10:15:24.350Z,93798.73
2023-01-20T10:18:13.491Z,93784.81
2023-01-20T10:20:49.427Z,93767.32
2023-01-20T10:23:24.647Z,93746.02
2023-01-20T10:25:59.381Z,93747.38
2023-01-20T10:28:34.404Z,93757.09
2023-01-20T10:31:04.575Z,93761.02
2023-01-20T10:33:37.001Z,93767.23
2023-01-20T10:36:06.636Z,93765.33
2023-01-20T10:38:49.581Z,93759.92
2023-01-20T10:41:26.997Z,93760.47
2023-01-20T10:43:54.375Z,93769.64
2023-01-20T10:46:39.492Z,93761.81
2023-01-20T10:49:25.669Z,93747.89
2023-01-20T10:52:14.483Z,93755.95
2023-01-20T10:55:07.156Z,93765.01
2023-01-20T10:57:34.683Z,93769.02
2023-01-20T11:00:07.495Z,93765.21
2023-01-20T11:02:38.035Z,93762.85
2023-01-20T11:05:16.963Z,93758.54
2023-01-20T11:07:45.511Z,93760.61
2023-01-20T11:10:27.537Z,93762.97
2023-01-20T11:12:57.411Z,93762.50
2023-01-20T11:15:29.898Z,93765.98
2023-01-20T11:18:14.967Z,93766.88
2023-01-20T11:21:14.416Z,93777.39
2023-01-20T11:23:49.505Z,93783.14
2023-01-20T11:26:19.225Z,93776.95
2023-01-20T11:28:54.099Z,93768.52
2023-01-20T11:31:23.194Z,93777.40
2023-01-20T11:34:23.823Z,93777.73
2023-01-20T11:36:52.231Z,93770.11
2023-01-20T11:42:48.768Z,93760.81
2023-01-20T11:45:37.665Z,93757.45
2023-01-20T11:48:16.157Z,93756.30
2023-01-20T11:50:54.543Z,93768.79
2023-01-20T11:53:27.527Z,93763.38
2023-01-20T11:55:57.413Z,93769.34
2023-01-20T11:58:28.549Z,93773.71
2023-01-20T12:01:06.223Z,93775.98
2023-01-20T12:03:58.930Z,93770.91
2023-01-20T12:06:31.347Z,93771.08
2023-01-20T12:09:01.576Z,93777.85
2023-01-20T12:11:38.879Z,93775.23
2023-01-20T12:14:33.236Z,93776.66
2023-01-20T12:17:40.197Z,93792.19
2023-01-20T12:20:22.141Z,93809.47
2023-01-20T12:23:10.530Z,93821.91
2023-01-20T12:25:55.774Z,93841.11
2023-01-20T12:28:29.333Z,93849.44
2023-01-20T12:31:02.136Z,93865.42
2023-01-20T12:33:33.175Z,93875.22
2023-01-20T12:36:03.036Z,93888.73
2023-01-20T12:38:41.847Z,93906.52
2023-01-20T12:41:18.424Z,93915.52
2023-01-20T12:43:51.549Z,93914.41
2023-01-20T12:46:27.434Z,93933.33
2023-01-20T12:49:11.288Z,93935.33
2023-01-20T12:51:54.471Z,93932.37
2023-01-20T12:54:49.035Z,93929.73
2023-01-20T12:57:45.648Z,93932.39
2023-01-20T13:00:44.647Z,93930.67
2023-01-20T13:03:52.358Z,93923.08
2023-01-20T13:06:37.793Z,93931.83
2023-01-20T13:09:37.343Z,93928.42
2023-01-20T13:12:06.979Z,93931.20
2023-01-20T13:14:43.213Z,93935.55
2023-01-20T13:17:25.906Z,93940.81
2023-01-20T13:19:58.064Z,93945.68
2023-01-20T13:22:26.358Z,93953.77
2023-01-20T13:24:58.752Z,93957.88
2023-01-20T13:27:27.766Z,93959.67
2023-01-20T13:30:00.880Z,93955.52
2023-01-20T13:32:48.237Z,93958.26
2023-01-20T13:35:17.979Z,93956.61
2023-01-20T13:37:51.075Z,93958.27
2023-01-20T13:40:38.196Z,93959.35
2023-01-20T13:43:25.857Z,93958.23
2023-01-20T13:46:07.346Z,93961.20
2023-01-20T13:48:38.877Z,93961.60
2023-01-20T13:51:27.301Z,93958.76
2023-01-20T13:53:54.851Z,93967.50
2023-01-20T13:56:35.117Z,93977.42
2023-01-20T13:59:02.062Z,93988.31
2023-01-20T14:01:28.987Z,94000.75
2023-01-20T14:04:18.730Z,94008.64
2023-01-20T14:06:50.650Z,94014.98
2023-01-20T14:09:20.224Z,94014.29
2023-01-20T14:11:52.150Z,94010.20
2023-01-20T14:14:29.026Z,94018.86
2023-01-20T14:17:01.700Z,94015.45
2023-01-20T14:19:34.930Z,94011.36
2023-01-20T14:22:17.127Z,94015.12
2023-01-20T14:24:46.623Z,94023.27
2023-01-20T14:27:21.751Z,94026.47
2023-01-20T14:29:51.500Z,94022.28
2023-01-20T14:32:30.059Z,94025.36
2023-01-20T14:34:57.851Z,94024.45
2023-01-20T14:37:36.623Z,94029.45
2023-01-20T14:40:26.709Z,94032.33
2023-01-20T14:43:01.855Z,94033.16
2023-01-20T14:45:32.453Z,94028.14
2023-01-20T14:48:02.901Z,94023.20
2023-01-20T14:50:30.333Z,94026.39
2023-01-20T14:52:57.641Z,94032.95
2023-01-20T14:55:28.429Z,94039.96
2023-01-20T14:57:55.956Z,94048.34
2023-01-20T15:00:36.723Z,94052.91
2023-01-20T15:03:14.342Z,94061.34
2023-01-20T15:05:53.343Z,94074.04
2023-01-20T15:08:48.532Z,94080.04
2023-01-20T15:11:23.688Z,94086.66
2023-01-20T15:13:53.888Z,94092.30
2023-01-20T15:16:25.282Z,94096.07
2023-01-20T15:19:13.401Z,94098.48
2023-01-20T15:21:46.048Z,94099.29
2023-01-20T15:24:15.654Z,94105.80
2023-01-20T15:26:43.025Z,94110.58
2023-01-20T15:29:26.371Z,94124.48
2023-01-20T15:31:55.579Z,94129.64
2023-01-20T15:34:23.574Z,94137.95
2023-01-20T15:36:51.870Z,94141.06
2023-01-20T15:39:24.539Z,94144.58
2023-01-20T15:41:54.215Z,94154.27
2023-01-20T15:44:27.310Z,94162.95
2023-01-20T15:46:57.366Z,94171.83
2023-01-20T15:49:25.488Z,94173.27
2023-01-20T15:51:53.053Z,94175.14
2023-01-20T15:54:19.968Z,94180.34
2023-01-20T15:56:46.967Z,94182.82
2023-01-20T15:59:21.248Z,94190.07
2023-01-20T16:01:50.301Z,94192.18
2023-01-20T16:04:18.564Z,94196.72
2023-01-20T16:06:45.682Z,94201.67
2023-01-20T16:09:27.136Z,94206.48
2023-01-20T16:11:54.564Z,94213.05
2023-01-20T16:14:21.696Z,94220.80
2023-01-20T16:16:48.804Z,94220.63
2023-01-20T16:19:16.259Z,94224.89
2023-01-20T16:21:45.479Z,94228.14
2023-01-20T16:24:13.222Z,94236.83
2023-01-20T16:26:40.573Z,94242.02
2023-01-20T16:29:09.110Z,94244.09
2023-01-20T16:31:36.159Z,94245.44
2023-01-20T16:34:04.439Z,94245.76
2023-01-20T16:36:31.546Z,94247.65
2023-01-20T16:38:58.464Z,94255.74
2023-01-20T16:41:28.179Z,94261.67
2023-01-20T16:43:58.677Z,94264.31
2023-01-20T16:46:31.037Z,94261.82
2023-01-20T16:49:02.141Z,94267.19
2023-01-20T16:51:30.417Z,94270.13
2023-01-20T16:53:58.362Z,94270.89
2023-01-20T16:56:28.352Z,94275.14
2023-01-20T16:58:59.511Z,94273.30
2023-01-20T17:01:26.774Z,94273.90
2023-01-20T17:03:57.701Z,94273.42
2023-01-20T17:06:31.060Z,94282.73
2023-01-20T17:09:00.126Z,94280.05
2023-01-20T17:11:29.322Z,94282.14
2023-01-20T17:13:57.088Z,94283.46
2023-01-20T17:16:26.770Z,94285.44
2023-01-20T17:18:59.325Z,94285.60
2023-01-20T17:21:29.228Z,94283.86
2023-01-20T17:23:59.836Z,94284.91
2023-01-20T17:26:27.732Z,94292.95
2023-01-20T17:29:06.154Z,94299.09
2023-01-20T17:31:36.563Z,94306.23
2023-01-20T17:34:05.067Z,94316.41
2023-01-20T17:36:35.163Z,94319.02
2023-01-20T17:39:03.558Z,94319.29
2023-01-20T17:41:30.688Z,94322.67
2023-01-20T17:43:57.743Z,94319.05
2023-01-20T17:46:30.340Z,94325.99
2023-01-20T17:48:59.618Z,94329.44
2023-01-20T17:51:29.060Z,94329.33
2023-01-20T17:53:58.116Z,94335.70
2023-01-20T17:56:25.946Z,94340.92
2023-01-20T17:58:54.753Z,94350.98
2023-01-20T18:01:24.694Z,94352.59
2023-01-20T18:03:53.815Z,94357.29
2023-01-20T18:06:22.532Z,94352.27
2023-01-20T18:08:54.169Z,94353.23
2023-01-20T18:11:23.211Z,94356.52
2023-01-20T18:13:52.362Z,94358.56
2023-01-20T18:16:21.691Z,94363.63
2023-01-20T18:36:34.300Z,94384.56
2023-01-20T18:39:02.928Z,94392.92
2023-01-20T18:41:32.511Z,94394.36
2023-01-20T18:44:00.156Z,94400.01
2023-01-20T18:46:28.495Z,94400.88
2023-01-20T18:48:58.760Z,94403.59
2023-01-20T18:51:28.896Z,94413.65
2023-01-20T18:56:44.172Z,94418.81
2023-01-20T18:59:12.250Z,94423.54
2023-01-20T19:01:41.421Z,94434.11
2023-01-20T19:12:34.847Z,94462.58
2023-01-20T19:15:01.826Z,94469.45
2023-01-20T19:17:30.924Z,94478.48
2023-01-20T19:19:58.139Z,94483.77
2023-01-20T19:29:06.964Z,94495.58
2023-01-20T19:31:38.039Z,94495.00
2023-01-20T19:34:06.844Z,94493.60
2023-01-20T19:36:34.525Z,94492.46
2023-01-20T19:39:01.769Z,94503.02
2023-01-20T19:41:34.531Z,94505.84
2023-01-20T19:44:03.584Z,94510.63
2023-01-20T19:46:34.156Z,94513.02
2023-01-20T19:49:02.518Z,94518.23
2023-01-20T19:51:31.691Z,94524.94
2023-01-20T19:54:01.073Z,94529.50
2023-01-20T19:56:30.559Z,94533.65
2023-01-20T19:59:00.672Z,94531.24
2023-01-20T20:01:33.520Z,94531.89
2023-01-20T20:04:13.896Z,94539.81
2023-01-20T20:06:46.250Z,94539.98
2023-01-20T20:09:21.459Z,94536.98
2023-01-20T20:11:49.151Z,94536.29
2023-01-20T20:14:18.590Z,94541.48
2023-01-20T20:16:46.423Z,94544.24
2023-01-20T20:19:16.447Z,94546.62
2023-01-20T20:21:44.333Z,94546.64
2023-01-20T20:24:15.875Z,94544.36
2023-01-20T20:26:45.674Z,94549.02
2023-01-20T20:29:14.489Z,94551.25
2023-01-20T20:31:41.586Z,94546.52
2023-01-20T20:34:13.374Z,94555.46
2023-01-20T20:36:40.558Z,94555.33
2023-01-20T20:39:08.484Z,94551.05
2023-01-20T20:41:36.778Z,94543.89
2023-01-20T20:44:04.163Z,94542.35
2023-01-20T20:46:31.237Z,94541.77
2023-01-20T20:49:00.981Z,94540.95
2023-01-20T20:51:33.381Z,94548.98
2023-01-20T20:54:02.412Z,94554.96
2023-01-20T20:56:31.860Z,94559.92
2023-01-20T20:59:02.786Z,94564.85
2023-01-20T21:01:49.583Z,94565.30
2023-01-20T21:04:16.471Z,94563.45
2023-01-20T21:06:43.313Z,94570.01
2023-01-20T21:09:10.335Z,94566.28
2023-01-20T21:11:38.667Z,94559.21
2023-01-20T21:14:05.816Z,94563.93
2023-01-20T21:16:32.939Z,94571.84
2023-01-20T21:19:01.641Z,94567.88
2023-01-20T21:21:29.267Z,94573.04
2023-01-20T21:23:57.931Z,94575.64
2023-01-20T21:26:29.637Z,94579.41
2023-01-20T21:28:57.283Z,94579.58
2023-01-20T21:31:26.969Z,94591.18
2023-01-20T21:33:57.116Z,94600.31
2023-01-20T21:36:25.648Z,94598.02
2023-01-20T21:38:52.645Z,94590.91
2023-01-20T21:41:20.445Z,94580.26
2023-01-20T21:44:10.869Z,94583.34
2023-01-20T21:46:40.263Z,94593.27
2023-01-20T21:49:27.313Z,94599.23
2023-01-20T21:52:14.960Z,94599.83
2023-01-20T21:54:45.184Z,94609.70
2023-01-20T21:57:14.971Z,94609.23
2023-01-20T21:59:43.277Z,94607.00
2023-01-20T22:02:13.286Z,94601.70
2023-01-20T22:04:41.156Z,94594.84
2023-01-20T22:07:08.097Z,94588.48
2023-01-20T22:09:34.941Z,94599.61
2023-01-20T22:12:02.222Z,94603.13
2023-01-20T22:14:29.138Z,94604.37
2023-01-20T22:16:56.020Z,94604.30
2023-01-20T22:19:22.827Z,94603.94
2023-01-20T22:21:49.742Z,94603.00
2023-01-20T22:24:17.407Z,94599.95
2023-01-20T22:26:48.603Z,94601.39
2023-01-20T22:29:16.763Z,94598.63
2023-01-20T22:31:44.641Z,94598.30
2023-01-20T22:34:13.099Z,94599.77
2023-01-20T22:36:39.949Z,94606.19
2023-01-20T22:39:07.587Z,94608.89
2023-01-20T22:41:34.431Z,94606.84
2023-01-20T22:44:01.247Z,94611.92
2023-01-20T22:46:31.043Z,94612.34
2023-01-20T22:48:59.194Z,94609.23
2023-01-20T22:51:28.502Z,94610.48
2023-01-20T22:53:59.770Z,94611.91
2023-01-20T22:56:29.511Z,94613.43
2023-01-20T22:58:57.688Z,94611.34
2023-01-20T23:01:32.994Z,94612.35
2023-01-20T23:04:05.664Z,94607.13
2023-01-20T23:06:34.743Z,94612.48
2023-01-20T23:09:05.679Z,94611.53
2023-01-20T23:11:34.070Z,94614.38
2023-01-20T23:14:01.015Z,94613.26
2023-01-20T23:16:28.025Z,94613.37
2023-01-20T23:18:55.609Z,94610.06
2023-01-20T23:21:22.585Z,94618.58
2023-01-20T23:23:55.069Z,94628.66
2023-01-20T23:26:28.607Z,94625.42
2023-01-20T23:28:56.765Z,94616.48
2023-01-20T23:31:25.342Z,94609.09
2023-01-20T23:33:54.277Z,94616.70
2023-01-20T23:36:24.424Z,94621.20
2023-01-20T23:38:54.791Z,94615.85
2023-01-20T23:41:22.176Z,94608.97
2023-01-20T23:43:49.449Z,94611.51
2023-01-20T23:46:16.360Z,94610.21
2023-01-20T23:48:45.979Z,94613.89
2023-01-20T23:51:33.456Z,94608.70
2023-01-20T23:54:02.783Z,94605.48
2023-01-20T23:56:29.617Z,94608.43
2023-01-20T23:58:56.540Z,94609.89
